sensor_id;sensor_type;location;lat;lon;timestamp;temperature;humidity
4727;DHT22;2377;51.734;8.950;2022-10-16T00:01:20;13.80;99.90
4727;DHT22;2377;51.734;8.950;2022-10-16T00:03:49;13.80;99.90
4727;DHT22;2377;51.734;8.950;2022-10-16T00:06:18;13.80;99.90
4727;DHT22;2377;51.734;8.950;2022-10-16T00:08:47;13.80;99.90
4727;DHT22;2377;51.734;8.950;2022-10-16T00:11:18;13.80;99.90
4727;DHT22;2377;51.734;8.950;2022-10-16T00:13:48;13.80;99.90
4727;DHT22;2377;51.734;8.950;2022-10-16T00:16:18;13.80;99.90
4727;DHT22;2377;51.734;8.950;2022-10-16T00:18:45;13.80;99.90
4727;DHT22;2377;51.734;8.950;2022-10-16T00:21:14;13.80;99.90
4727;DHT22;2377;51.734;8.950;2022-10-16T00:23:43;13.70;99.90
4727;DHT22;2377;51.734;8.950;2022-10-16T00:26:15;13.70;99.90
4727;DHT22;2377;51.734;8.950;2022-10-16T00:28:46;13.70;99.90
4727;DHT22;2377;51.734;8.950;2022-10-16T00:31:14;13.80;99.90
4727;DHT22;2377;51.734;8.950;2022-10-16T00:33:43;13.80;99.90
4727;DHT22;2377;51.734;8.950;2022-10-16T00:36:14;13.80;99.90
4727;DHT22;2377;51.734;8.950;2022-10-16T00:38:44;13.80;99.90
4727;DHT22;2377;51.734;8.950;2022-10-16T00:41:14;13.70;99.90
4727;DHT22;2377;51.734;8.950;2022-10-16T00:43:47;13.70;99.90
4727;DHT22;2377;51.734;8.950;2022-10-16T00:46:18;13.70;99.90
4727;DHT22;2377;51.734;8.950;2022-10-16T00:48:51;13.80;99.90
4727;DHT22;2377;51.734;8.950;2022-10-16T00:51:23;13.70;99.90
4727;DHT22;2377;51.734;8.950;2022-10-16T00:53:55;13.70;99.90
4727;DHT22;2377;51.734;8.950;2022-10-16T00:56:24;13.70;99.90
4727;DHT22;2377;51.734;8.950;2022-10-16T00:58:51;13.70;99.90
4727;DHT22;2377;51.734;8.950;2022-10-16T01:01:18;13.60;99.90
4727;DHT22;2377;51.734;8.950;2022-10-16T01:03:46;13.60;99.90
4727;DHT22;2377;51.734;8.950;2022-10-16T01:06:23;13.60;99.90
4727;DHT22;2377;51.734;8.950;2022-10-16T01:09:11;13.60;99.90
4727;DHT22;2377;51.734;8.950;2022-10-16T01:11:53;13.50;99.90
4727;DHT22;2377;51.734;8.950;2022-10-16T01:14:34;13.50;99.90
4727;DHT22;2377;51.734;8.950;2022-10-16T01:17:12;13.50;99.90
4727;DHT22;2377;51.734;8.950;2022-10-16T01:20:00;13.40;99.90
4727;DHT22;2377;51.734;8.950;2022-10-16T01:22:40;13.30;99.90
4727;DHT22;2377;51.734;8.950;2022-10-16T01:25:22;13.30;99.90
4727;DHT22;2377;51.734;8.950;2022-10-16T01:27:57;13.30;99.90
4727;DHT22;2377;51.734;8.950;2022-10-16T01:30:30;13.30;99.90
4727;DHT22;2377;51.734;8.950;2022-10-16T01:33:03;13.30;99.90
4727;DHT22;2377;51.734;8.950;2022-10-16T01:35:39;13.20;99.90
4727;DHT22;2377;51.734;8.950;2022-10-16T01:38:14;13.20;99.90
4727;DHT22;2377;51.734;8.950;2022-10-16T01:40:49;13.20;99.90
4727;DHT22;2377;51.734;8.950;2022-10-16T01:43:22;13.20;99.90
4727;DHT22;2377;51.734;8.950;2022-10-16T01:45:54;13.20;99.90
4727;DHT22;2377;51.734;8.950;2022-10-16T01:48:23;13.10;99.90
4727;DHT22;2377;51.734;8.950;2022-10-16T01:50:55;13.10;99.90
4727;DHT22;2377;51.734;8.950;2022-10-16T01:53:28;13.10;99.90
4727;DHT22;2377;51.734;8.950;2022-10-16T01:55:58;13.10;99.90
4727;DHT22;2377;51.734;8.950;2022-10-16T01:58:30;13.10;99.90
4727;DHT22;2377;51.734;8.950;2022-10-16T02:01:02;13.10;99.90
4727;DHT22;2377;51.734;8.950;2022-10-16T02:03:32;13.10;99.90
4727;DHT22;2377;51.734;8.950;2022-10-16T02:06:00;13.00;99.90
4727;DHT22;2377;51.734;8.950;2022-10-16T02:08:29;13.00;99.90
4727;DHT22;2377;51.734;8.950;2022-10-16T02:10:57;13.00;99.90
4727;DHT22;2377;51.734;8.950;2022-10-16T02:13:32;13.00;99.90
4727;DHT22;2377;51.734;8.950;2022-10-16T02:16:02;13.00;99.90
4727;DHT22;2377;51.734;8.950;2022-10-16T02:18:30;13.00;99.90
4727;DHT22;2377;51.734;8.950;2022-10-16T02:20:59;13.00;99.90
4727;DHT22;2377;51.734;8.950;2022-10-16T02:23:48;13.00;99.90
4727;DHT22;2377;51.734;8.950;2022-10-16T02:26:26;13.00;99.90
4727;DHT22;2377;51.734;8.950;2022-10-16T02:29:01;13.00;99.90
4727;DHT22;2377;51.734;8.950;2022-10-16T02:31:35;13.00;99.90
4727;DHT22;2377;51.734;8.950;2022-10-16T02:34:06;13.00;99.90
4727;DHT22;2377;51.734;8.950;2022-10-16T02:36:37;13.00;99.90
4727;DHT22;2377;51.734;8.950;2022-10-16T02:39:07;13.00;99.90
4727;DHT22;2377;51.734;8.950;2022-10-16T02:41:35;12.90;99.90
4727;DHT22;2377;51.734;8.950;2022-10-16T02:44:04;12.90;99.90
4727;DHT22;2377;51.734;8.950;2022-10-16T02:46:31;13.00;99.90
4727;DHT22;2377;51.734;8.950;2022-10-16T02:48:58;13.00;99.90
4727;DHT22;2377;51.734;8.950;2022-10-16T02:51:25;13.00;99.90
4727;DHT22;2377;51.734;8.950;2022-10-16T02:53:52;13.00;99.90
4727;DHT22;2377;51.734;8.950;2022-10-16T02:56:19;13.00;99.90
4727;DHT22;2377;51.734;8.950;2022-10-16T02:58:47;13.00;99.90
4727;DHT22;2377;51.734;8.950;2022-10-16T03:01:15;13.00;99.90
4727;DHT22;2377;51.734;8.950;2022-10-16T03:03:42;13.00;99.90
4727;DHT22;2377;51.734;8.950;2022-10-16T03:06:09;12.90;99.90
4727;DHT22;2377;51.734;8.950;2022-10-16T03:08:36;12.90;99.90
4727;DHT22;2377;51.734;8.950;2022-10-16T03:11:04;12.90;99.90
4727;DHT22;2377;51.734;8.950;2022-10-16T03:13:31;12.90;99.90
4727;DHT22;2377;51.734;8.950;2022-10-16T03:15:58;12.90;99.90
4727;DHT22;2377;51.734;8.950;2022-10-16T03:18:26;12.90;99.90
4727;DHT22;2377;51.734;8.950;2022-10-16T03:20:54;12.80;99.90
4727;DHT22;2377;51.734;8.950;2022-10-16T03:23:21;12.80;99.90
4727;DHT22;2377;51.734;8.950;2022-10-16T03:25:48;12.80;99.90
4727;DHT22;2377;51.734;8.950;2022-10-16T03:28:15;12.80;99.90
4727;DHT22;2377;51.734;8.950;2022-10-16T03:30:43;12.80;99.90
4727;DHT22;2377;51.734;8.950;2022-10-16T03:33:10;12.70;99.90
4727;DHT22;2377;51.734;8.950;2022-10-16T03:35:38;12.70;99.90
4727;DHT22;2377;51.734;8.950;2022-10-16T03:38:05;12.80;99.90
4727;DHT22;2377;51.734;8.950;2022-10-16T03:40:32;12.70;99.90
4727;DHT22;2377;51.734;8.950;2022-10-16T03:42:59;12.80;99.90
4727;DHT22;2377;51.734;8.950;2022-10-16T03:45:26;12.80;99.90
4727;DHT22;2377;51.734;8.950;2022-10-16T03:47:53;12.80;99.90
4727;DHT22;2377;51.734;8.950;2022-10-16T03:50:20;12.80;99.90
4727;DHT22;2377;51.734;8.950;2022-10-16T03:52:49;12.80;99.90
4727;DHT22;2377;51.734;8.950;2022-10-16T03:55:16;12.80;99.90
4727;DHT22;2377;51.734;8.950;2022-10-16T03:57:43;12.80;99.90
4727;DHT22;2377;51.734;8.950;2022-10-16T04:00:11;12.80;99.90
4727;DHT22;2377;51.734;8.950;2022-10-16T04:02:39;12.80;99.90
4727;DHT22;2377;51.734;8.950;2022-10-16T04:05:07;12.80;99.90
4727;DHT22;2377;51.734;8.950;2022-10-16T04:07:34;12.80;99.90
4727;DHT22;2377;51.734;8.950;2022-10-16T04:10:04;12.80;99.90
4727;DHT22;2377;51.734;8.950;2022-10-16T04:12:32;12.70;99.90
4727;DHT22;2377;51.734;8.950;2022-10-16T04:14:59;12.80;99.90
4727;DHT22;2377;51.734;8.950;2022-10-16T04:17:26;12.70;99.90
4727;DHT22;2377;51.734;8.950;2022-10-16T04:19:53;12.70;99.90
4727;DHT22;2377;51.734;8.950;2022-10-16T04:22:20;12.70;99.90
4727;DHT22;2377;51.734;8.950;2022-10-16T04:24:47;12.70;99.90
4727;DHT22;2377;51.734;8.950;2022-10-16T04:27:16;12.70;99.90
4727;DHT22;2377;51.734;8.950;2022-10-16T04:29:43;12.70;99.90
4727;DHT22;2377;51.734;8.950;2022-10-16T04:32:10;12.70;99.90
4727;DHT22;2377;51.734;8.950;2022-10-16T04:34:39;12.70;99.90
4727;DHT22;2377;51.734;8.950;2022-10-16T04:37:06;12.70;99.90
4727;DHT22;2377;51.734;8.950;2022-10-16T04:39:33;12.70;99.90
4727;DHT22;2377;51.734;8.950;2022-10-16T04:42:00;12.80;99.90
4727;DHT22;2377;51.734;8.950;2022-10-16T04:44:29;12.70;99.90
4727;DHT22;2377;51.734;8.950;2022-10-16T04:46:56;12.70;99.90
4727;DHT22;2377;51.734;8.950;2022-10-16T04:49:23;12.70;99.90
4727;DHT22;2377;51.734;8.950;2022-10-16T04:51:50;12.70;99.90
4727;DHT22;2377;51.734;8.950;2022-10-16T04:54:17;12.70;99.90
4727;DHT22;2377;51.734;8.950;2022-10-16T04:56:44;12.70;99.90
4727;DHT22;2377;51.734;8.950;2022-10-16T04:59:14;12.80;99.90
4727;DHT22;2377;51.734;8.950;2022-10-16T05:01:43;12.80;99.90
4727;DHT22;2377;51.734;8.950;2022-10-16T05:04:11;12.80;99.90
4727;DHT22;2377;51.734;8.950;2022-10-16T05:06:40;12.70;99.90
4727;DHT22;2377;51.734;8.950;2022-10-16T05:09:08;12.80;99.90
4727;DHT22;2377;51.734;8.950;2022-10-16T05:11:36;12.80;99.90
4727;DHT22;2377;51.734;8.950;2022-10-16T05:14:03;12.80;99.90
4727;DHT22;2377;51.734;8.950;2022-10-16T05:16:30;12.80;99.90
4727;DHT22;2377;51.734;8.950;2022-10-16T05:18:58;12.80;99.90
4727;DHT22;2377;51.734;8.950;2022-10-16T05:21:26;12.80;99.90
4727;DHT22;2377;51.734;8.950;2022-10-16T05:23:53;12.80;99.90
4727;DHT22;2377;51.734;8.950;2022-10-16T05:26:20;12.80;99.90
4727;DHT22;2377;51.734;8.950;2022-10-16T05:28:49;12.80;99.90
4727;DHT22;2377;51.734;8.950;2022-10-16T05:31:16;12.80;99.90
4727;DHT22;2377;51.734;8.950;2022-10-16T05:33:43;12.80;99.90
4727;DHT22;2377;51.734;8.950;2022-10-16T05:36:12;12.80;99.90
4727;DHT22;2377;51.734;8.950;2022-10-16T05:38:39;12.80;99.90
4727;DHT22;2377;51.734;8.950;2022-10-16T05:41:06;12.90;99.90
4727;DHT22;2377;51.734;8.950;2022-10-16T05:43:33;12.80;99.90
4727;DHT22;2377;51.734;8.950;2022-10-16T05:46:02;12.90;99.90
4727;DHT22;2377;51.734;8.950;2022-10-16T05:48:31;13.00;99.90
4727;DHT22;2377;51.734;8.950;2022-10-16T05:50:59;13.00;99.90
4727;DHT22;2377;51.734;8.950;2022-10-16T05:53:31;12.90;99.90
4727;DHT22;2377;51.734;8.950;2022-10-16T05:55:59;12.90;99.90
4727;DHT22;2377;51.734;8.950;2022-10-16T05:58:29;12.90;99.90
4727;DHT22;2377;51.734;8.950;2022-10-16T06:00:59;12.80;99.90
4727;DHT22;2377;51.734;8.950;2022-10-16T06:03:28;12.80;99.90
4727;DHT22;2377;51.734;8.950;2022-10-16T06:05:55;12.80;99.90
4727;DHT22;2377;51.734;8.950;2022-10-16T06:08:23;12.80;99.90
4727;DHT22;2377;51.734;8.950;2022-10-16T06:11:01;12.80;99.90
4727;DHT22;2377;51.734;8.950;2022-10-16T06:13:29;12.80;99.90
4727;DHT22;2377;51.734;8.950;2022-10-16T06:15:57;12.80;99.90
4727;DHT22;2377;51.734;8.950;2022-10-16T06:18:26;12.80;99.90
4727;DHT22;2377;51.734;8.950;2022-10-16T06:20:53;12.80;99.90
4727;DHT22;2377;51.734;8.950;2022-10-16T06:23:20;12.80;99.90
4727;DHT22;2377;51.734;8.950;2022-10-16T06:25:48;12.80;99.90
4727;DHT22;2377;51.734;8.950;2022-10-16T06:28:17;12.80;99.90
4727;DHT22;2377;51.734;8.950;2022-10-16T06:30:44;12.80;99.90
4727;DHT22;2377;51.734;8.950;2022-10-16T06:33:11;12.80;99.90
4727;DHT22;2377;51.734;8.950;2022-10-16T06:35:39;12.80;99.90
4727;DHT22;2377;51.734;8.950;2022-10-16T06:38:06;12.80;99.90
4727;DHT22;2377;51.734;8.950;2022-10-16T06:40:33;12.90;99.90
4727;DHT22;2377;51.734;8.950;2022-10-16T06:43:00;12.90;99.90
4727;DHT22;2377;51.734;8.950;2022-10-16T06:45:28;12.90;99.90
4727;DHT22;2377;51.734;8.950;2022-10-16T06:47:55;13.00;99.90
4727;DHT22;2377;51.734;8.950;2022-10-16T06:50:22;13.00;99.90
4727;DHT22;2377;51.734;8.950;2022-10-16T06:52:49;13.10;99.90
4727;DHT22;2377;51.734;8.950;2022-10-16T06:55:16;13.10;99.90
4727;DHT22;2377;51.734;8.950;2022-10-16T06:57:43;13.10;99.90
4727;DHT22;2377;51.734;8.950;2022-10-16T07:00:13;13.20;99.90
4727;DHT22;2377;51.734;8.950;2022-10-16T07:02:42;13.20;99.90
4727;DHT22;2377;51.734;8.950;2022-10-16T07:05:09;13.30;99.90
4727;DHT22;2377;51.734;8.950;2022-10-16T07:07:36;13.30;99.90
4727;DHT22;2377;51.734;8.950;2022-10-16T07:10:04;13.40;99.90
4727;DHT22;2377;51.734;8.950;2022-10-16T07:12:31;13.40;99.90
4727;DHT22;2377;51.734;8.950;2022-10-16T07:14:58;13.40;99.90
4727;DHT22;2377;51.734;8.950;2022-10-16T07:17:25;13.50;99.90
4727;DHT22;2377;51.734;8.950;2022-10-16T07:19:54;13.50;99.90
4727;DHT22;2377;51.734;8.950;2022-10-16T07:22:21;13.50;99.90
4727;DHT22;2377;51.734;8.950;2022-10-16T07:24:48;13.60;99.90
4727;DHT22;2377;51.734;8.950;2022-10-16T07:27:17;13.70;99.90
4727;DHT22;2377;51.734;8.950;2022-10-16T07:29:44;13.70;99.90
4727;DHT22;2377;51.734;8.950;2022-10-16T07:32:11;13.80;99.90
4727;DHT22;2377;51.734;8.950;2022-10-16T07:34:38;13.80;99.90
4727;DHT22;2377;51.734;8.950;2022-10-16T07:37:07;13.80;99.90
4727;DHT22;2377;51.734;8.950;2022-10-16T07:39:34;13.90;99.90
4727;DHT22;2377;51.734;8.950;2022-10-16T07:42:01;14.00;99.90
4727;DHT22;2377;51.734;8.950;2022-10-16T07:44:28;14.00;99.90
4727;DHT22;2377;51.734;8.950;2022-10-16T07:46:55;14.00;99.90
4727;DHT22;2377;51.734;8.950;2022-10-16T07:49:23;14.10;99.90
4727;DHT22;2377;51.734;8.950;2022-10-16T07:51:50;14.20;99.90
4727;DHT22;2377;51.734;8.950;2022-10-16T07:54:18;14.30;99.90
4727;DHT22;2377;51.734;8.950;2022-10-16T07:56:45;14.40;99.90
4727;DHT22;2377;51.734;8.950;2022-10-16T07:59:13;14.50;99.90
4727;DHT22;2377;51.734;8.950;2022-10-16T08:01:40;14.50;99.90
4727;DHT22;2377;51.734;8.950;2022-10-16T08:04:08;14.60;99.90
4727;DHT22;2377;51.734;8.950;2022-10-16T08:06:37;14.70;99.90
4727;DHT22;2377;51.734;8.950;2022-10-16T08:09:06;14.70;99.90
4727;DHT22;2377;51.734;8.950;2022-10-16T08:11:35;14.80;99.90
4727;DHT22;2377;51.734;8.950;2022-10-16T08:14:02;15.00;99.90
4727;DHT22;2377;51.734;8.950;2022-10-16T08:16:29;15.10;99.90
4727;DHT22;2377;51.734;8.950;2022-10-16T08:18:56;15.20;99.90
4727;DHT22;2377;51.734;8.950;2022-10-16T08:21:24;15.20;99.90
4727;DHT22;2377;51.734;8.950;2022-10-16T08:23:52;15.30;99.90
4727;DHT22;2377;51.734;8.950;2022-10-16T08:26:20;15.60;97.90
4727;DHT22;2377;51.734;8.950;2022-10-16T08:28:50;15.90;43.40
4727;DHT22;2377;51.734;8.950;2022-10-16T08:31:18;16.30;28.50
4727;DHT22;2377;51.734;8.950;2022-10-16T08:33:46;16.50;8.00
4727;DHT22;2377;51.734;8.950;2022-10-16T08:36:14;16.60;6.50
4727;DHT22;2377;51.734;8.950;2022-10-16T08:38:42;16.40;5.20
4727;DHT22;2377;51.734;8.950;2022-10-16T08:41:25;16.10;12.30
4727;DHT22;2377;51.734;8.950;2022-10-16T08:44:27;16.10;1.00
4727;DHT22;2377;51.734;8.950;2022-10-16T08:47:17;16.30;1.00
4727;DHT22;2377;51.734;8.950;2022-10-16T08:49:55;16.60;1.00
4727;DHT22;2377;51.734;8.950;2022-10-16T08:52:28;16.70;1.00
4727;DHT22;2377;51.734;8.950;2022-10-16T08:54:59;17.00;1.00
4727;DHT22;2377;51.734;8.950;2022-10-16T08:57:26;17.10;1.00
4727;DHT22;2377;51.734;8.950;2022-10-16T08:59:59;17.30;1.00
4727;DHT22;2377;51.734;8.950;2022-10-16T09:02:36;17.50;1.00
4727;DHT22;2377;51.734;8.950;2022-10-16T09:05:34;17.80;1.00
4727;DHT22;2377;51.734;8.950;2022-10-16T09:08:20;18.00;1.00
4727;DHT22;2377;51.734;8.950;2022-10-16T09:10:58;18.30;99.90
4727;DHT22;2377;51.734;8.950;2022-10-16T09:13:36;18.30;99.90
4727;DHT22;2377;51.734;8.950;2022-10-16T09:16:17;18.50;99.90
4727;DHT22;2377;51.734;8.950;2022-10-16T09:18:54;18.80;99.90
4727;DHT22;2377;51.734;8.950;2022-10-16T09:21:29;19.00;99.90
4727;DHT22;2377;51.734;8.950;2022-10-16T09:23:58;18.90;99.90
4727;DHT22;2377;51.734;8.950;2022-10-16T09:26:34;18.60;99.90
4727;DHT22;2377;51.734;8.950;2022-10-16T09:29:03;18.40;99.90
4727;DHT22;2377;51.734;8.950;2022-10-16T09:31:31;18.60;99.90
4727;DHT22;2377;51.734;8.950;2022-10-16T09:34:03;18.40;99.90
4727;DHT22;2377;51.734;8.950;2022-10-16T09:36:39;18.10;99.90
4727;DHT22;2377;51.734;8.950;2022-10-16T09:39:10;17.90;99.90
4727;DHT22;2377;51.734;8.950;2022-10-16T09:41:40;17.80;99.90
4727;DHT22;2377;51.734;8.950;2022-10-16T09:44:19;17.70;99.90
4727;DHT22;2377;51.734;8.950;2022-10-16T09:47:02;17.90;99.90
4727;DHT22;2377;51.734;8.950;2022-10-16T09:49:30;18.10;99.90
4727;DHT22;2377;51.734;8.950;2022-10-16T09:52:05;18.00;99.90
4727;DHT22;2377;51.734;8.950;2022-10-16T09:54:37;17.70;99.90
4727;DHT22;2377;51.734;8.950;2022-10-16T09:57:15;17.80;99.90
4727;DHT22;2377;51.734;8.950;2022-10-16T09:59:47;17.80;99.90
4727;DHT22;2377;51.734;8.950;2022-10-16T10:02:18;17.80;99.90
4727;DHT22;2377;51.734;8.950;2022-10-16T10:04:51;18.00;99.90
4727;DHT22;2377;51.734;8.950;2022-10-16T10:07:24;17.90;99.90
4727;DHT22;2377;51.734;8.950;2022-10-16T10:09:55;17.80;99.90
4727;DHT22;2377;51.734;8.950;2022-10-16T10:12:24;18.00;99.90
4727;DHT22;2377;51.734;8.950;2022-10-16T10:14:54;18.30;99.90
4727;DHT22;2377;51.734;8.950;2022-10-16T10:17:25;18.60;99.90
4727;DHT22;2377;51.734;8.950;2022-10-16T10:19:54;18.60;99.90
4727;DHT22;2377;51.734;8.950;2022-10-16T10:22:30;18.80;99.90
4727;DHT22;2377;51.734;8.950;2022-10-16T10:25:19;18.80;99.90
4727;DHT22;2377;51.734;8.950;2022-10-16T10:28:29;18.90;99.90
4727;DHT22;2377;51.734;8.950;2022-10-16T10:31:13;18.60;99.90
4727;DHT22;2377;51.734;8.950;2022-10-16T10:33:55;18.60;99.90
4727;DHT22;2377;51.734;8.950;2022-10-16T10:36:30;18.80;99.90
4727;DHT22;2377;51.734;8.950;2022-10-16T10:39:05;19.10;99.90
4727;DHT22;2377;51.734;8.950;2022-10-16T10:41:51;19.30;57.30
4727;DHT22;2377;51.734;8.950;2022-10-16T10:44:50;19.30;81.20
4727;DHT22;2377;51.734;8.950;2022-10-16T10:47:44;19.10;99.90
4727;DHT22;2377;51.734;8.950;2022-10-16T10:50:24;19.10;48.40
4727;DHT22;2377;51.734;8.950;2022-10-16T10:53:02;19.20;16.50
4727;DHT22;2377;51.734;8.950;2022-10-16T10:55:40;19.10;14.10
4727;DHT22;2377;51.734;8.950;2022-10-16T10:58:29;19.00;9.00
4727;DHT22;2377;51.734;8.950;2022-10-16T11:01:12;19.00;34.20
4727;DHT22;2377;51.734;8.950;2022-10-16T11:03:56;18.60;39.60
4727;DHT22;2377;51.734;8.950;2022-10-16T11:06:42;18.60;24.10
4727;DHT22;2377;51.734;8.950;2022-10-16T11:09:17;18.60;63.90
4727;DHT22;2377;51.734;8.950;2022-10-16T11:11:50;18.70;47.30
4727;DHT22;2377;51.734;8.950;2022-10-16T11:14:25;18.70;59.40
4727;DHT22;2377;51.734;8.950;2022-10-16T11:16:59;18.80;29.70
4727;DHT22;2377;51.734;8.950;2022-10-16T11:19:36;18.70;65.30
4727;DHT22;2377;51.734;8.950;2022-10-16T11:22:13;18.60;17.60
4727;DHT22;2377;51.734;8.950;2022-10-16T11:24:48;18.70;30.00
4727;DHT22;2377;51.734;8.950;2022-10-16T11:27:24;18.80;32.40
4727;DHT22;2377;51.734;8.950;2022-10-16T11:30:04;18.80;14.00
4727;DHT22;2377;51.734;8.950;2022-10-16T11:32:50;18.90;24.80
4727;DHT22;2377;51.734;8.950;2022-10-16T11:35:32;18.90;37.30
4727;DHT22;2377;51.734;8.950;2022-10-16T11:38:15;18.90;32.50
4727;DHT22;2377;51.734;8.950;2022-10-16T11:40:50;18.90;44.80
4727;DHT22;2377;51.734;8.950;2022-10-16T11:43:25;18.80;34.80
4727;DHT22;2377;51.734;8.950;2022-10-16T11:46:00;18.80;21.50
4727;DHT22;2377;51.734;8.950;2022-10-16T11:48:35;18.80;52.80
4727;DHT22;2377;51.734;8.950;2022-10-16T11:51:16;18.70;67.10
4727;DHT22;2377;51.734;8.950;2022-10-16T11:53:58;18.60;71.40
4727;DHT22;2377;51.734;8.950;2022-10-16T11:56:30;18.60;69.80
4727;DHT22;2377;51.734;8.950;2022-10-16T11:59:06;18.50;59.20
4727;DHT22;2377;51.734;8.950;2022-10-16T12:01:44;18.50;88.80
4727;DHT22;2377;51.734;8.950;2022-10-16T12:04:22;18.50;33.70
4727;DHT22;2377;51.734;8.950;2022-10-16T12:07:01;18.60;24.30
4727;DHT22;2377;51.734;8.950;2022-10-16T12:09:37;18.70;37.40
4727;DHT22;2377;51.734;8.950;2022-10-16T12:12:24;18.60;11.60
4727;DHT22;2377;51.734;8.950;2022-10-16T12:15:01;18.70;23.80
4727;DHT22;2377;51.734;8.950;2022-10-16T12:17:36;18.60;25.60
4727;DHT22;2377;51.734;8.950;2022-10-16T12:20:26;18.50;22.40
4727;DHT22;2377;51.734;8.950;2022-10-16T12:22:59;18.40;15.80
4727;DHT22;2377;51.734;8.950;2022-10-16T12:25:30;18.30;51.90
4727;DHT22;2377;51.734;8.950;2022-10-16T12:28:01;18.30;44.30
4727;DHT22;2377;51.734;8.950;2022-10-16T12:30:33;18.40;53.30
4727;DHT22;2377;51.734;8.950;2022-10-16T12:33:03;18.50;27.30
4727;DHT22;2377;51.734;8.950;2022-10-16T12:35:34;18.60;26.70
4727;DHT22;2377;51.734;8.950;2022-10-16T12:38:16;18.60;33.60
4727;DHT22;2377;51.734;8.950;2022-10-16T12:40:56;18.60;24.70
4727;DHT22;2377;51.734;8.950;2022-10-16T12:43:38;18.60;23.70
4727;DHT22;2377;51.734;8.950;2022-10-16T12:46:23;18.70;53.60
4727;DHT22;2377;51.734;8.950;2022-10-16T12:49:29;18.70;17.30
4727;DHT22;2377;51.734;8.950;2022-10-16T12:51:58;18.80;23.20
4727;DHT22;2377;51.734;8.950;2022-10-16T12:54:29;18.80;23.40
4727;DHT22;2377;51.734;8.950;2022-10-16T12:57:12;18.70;15.80
4727;DHT22;2377;51.734;8.950;2022-10-16T12:59:58;18.70;45.50
4727;DHT22;2377;51.734;8.950;2022-10-16T13:02:58;18.70;27.90
4727;DHT22;2377;51.734;8.950;2022-10-16T13:06:01;18.70;33.90
4727;DHT22;2377;51.734;8.950;2022-10-16T13:09:05;18.80;34.80
4727;DHT22;2377;51.734;8.950;2022-10-16T13:12:02;18.90;25.50
4727;DHT22;2377;51.734;8.950;2022-10-16T13:15:01;19.00;20.70
4727;DHT22;2377;51.734;8.950;2022-10-16T13:17:50;19.10;4.10
4727;DHT22;2377;51.734;8.950;2022-10-16T13:20:31;19.10;24.60
4727;DHT22;2377;51.734;8.950;2022-10-16T13:23:10;19.10;15.10
4727;DHT22;2377;51.734;8.950;2022-10-16T13:25:50;19.20;25.40
4727;DHT22;2377;51.734;8.950;2022-10-16T13:28:30;19.10;14.50
4727;DHT22;2377;51.734;8.950;2022-10-16T13:31:01;19.10;4.30
4727;DHT22;2377;51.734;8.950;2022-10-16T13:33:33;19.10;9.50
4727;DHT22;2377;51.734;8.950;2022-10-16T13:36:04;19.10;14.30
4727;DHT22;2377;51.734;8.950;2022-10-16T13:38:34;19.10;9.60
4727;DHT22;2377;51.734;8.950;2022-10-16T13:41:04;19.10;9.70
4727;DHT22;2377;51.734;8.950;2022-10-16T13:43:36;19.10;11.20
4727;DHT22;2377;51.734;8.950;2022-10-16T13:46:10;19.00;7.50
4727;DHT22;2377;51.734;8.950;2022-10-16T13:48:40;19.00;12.20
4727;DHT22;2377;51.734;8.950;2022-10-16T13:51:13;19.00;12.60
4727;DHT22;2377;51.734;8.950;2022-10-16T13:53:42;19.10;1.00
4727;DHT22;2377;51.734;8.950;2022-10-16T13:56:12;19.10;10.10
4727;DHT22;2377;51.734;8.950;2022-10-16T13:58:42;19.30;3.00
4727;DHT22;2377;51.734;8.950;2022-10-16T14:01:17;19.30;9.30
4727;DHT22;2377;51.734;8.950;2022-10-16T14:03:47;19.50;1.00
4727;DHT22;2377;51.734;8.950;2022-10-16T14:06:18;19.50;1.00
4727;DHT22;2377;51.734;8.950;2022-10-16T14:08:50;19.50;1.00
4727;DHT22;2377;51.734;8.950;2022-10-16T14:11:26;19.50;1.60
4727;DHT22;2377;51.734;8.950;2022-10-16T14:13:55;19.50;1.00
4727;DHT22;2377;51.734;8.950;2022-10-16T14:16:26;19.50;1.00
4727;DHT22;2377;51.734;8.950;2022-10-16T14:18:59;19.60;1.00
4727;DHT22;2377;51.734;8.950;2022-10-16T14:21:28;19.50;1.00
4727;DHT22;2377;51.734;8.950;2022-10-16T14:23:56;19.50;1.00
4727;DHT22;2377;51.734;8.950;2022-10-16T14:26:24;19.50;1.20
4727;DHT22;2377;51.734;8.950;2022-10-16T14:29:12;19.50;1.00
4727;DHT22;2377;51.734;8.950;2022-10-16T14:31:41;19.50;1.00
4727;DHT22;2377;51.734;8.950;2022-10-16T14:34:30;19.50;1.00
4727;DHT22;2377;51.734;8.950;2022-10-16T14:37:00;19.40;1.00
4727;DHT22;2377;51.734;8.950;2022-10-16T14:39:33;19.40;1.00
4727;DHT22;2377;51.734;8.950;2022-10-16T14:42:00;19.30;1.00
4727;DHT22;2377;51.734;8.950;2022-10-16T14:44:32;19.30;1.00
4727;DHT22;2377;51.734;8.950;2022-10-16T14:47:07;19.30;10.00
4727;DHT22;2377;51.734;8.950;2022-10-16T14:49:41;19.20;1.00
4727;DHT22;2377;51.734;8.950;2022-10-16T14:52:10;19.20;12.80
4727;DHT22;2377;51.734;8.950;2022-10-16T14:54:38;19.10;13.70
4727;DHT22;2377;51.734;8.950;2022-10-16T14:57:16;19.10;14.20
4727;DHT22;2377;51.734;8.950;2022-10-16T14:59:46;19.10;9.00
4727;DHT22;2377;51.734;8.950;2022-10-16T15:02:23;19.10;5.80
4727;DHT22;2377;51.734;8.950;2022-10-16T15:04:55;19.10;1.00
4727;DHT22;2377;51.734;8.950;2022-10-16T15:07:22;19.10;4.00
4727;DHT22;2377;51.734;8.950;2022-10-16T15:09:50;19.10;10.30
4727;DHT22;2377;51.734;8.950;2022-10-16T15:12:18;19.10;19.20
4727;DHT22;2377;51.734;8.950;2022-10-16T15:14:46;19.10;15.80
4727;DHT22;2377;51.734;8.950;2022-10-16T15:17:13;19.00;25.90
4727;DHT22;2377;51.734;8.950;2022-10-16T15:19:40;18.80;31.70
4727;DHT22;2377;51.734;8.950;2022-10-16T15:22:09;18.80;37.60
4727;DHT22;2377;51.734;8.950;2022-10-16T15:24:37;18.70;48.50
4727;DHT22;2377;51.734;8.950;2022-10-16T15:27:04;18.60;79.20
4727;DHT22;2377;51.734;8.950;2022-10-16T15:29:31;18.50;99.90
4727;DHT22;2377;51.734;8.950;2022-10-16T15:32:00;18.40;99.90
4727;DHT22;2377;51.734;8.950;2022-10-16T15:34:27;18.30;99.90
4727;DHT22;2377;51.734;8.950;2022-10-16T15:36:54;18.30;99.90
4727;DHT22;2377;51.734;8.950;2022-10-16T15:39:23;18.20;99.90
4727;DHT22;2377;51.734;8.950;2022-10-16T15:41:50;18.20;99.90
4727;DHT22;2377;51.734;8.950;2022-10-16T15:44:19;18.20;99.90
4727;DHT22;2377;51.734;8.950;2022-10-16T15:46:48;18.10;99.90
4727;DHT22;2377;51.734;8.950;2022-10-16T15:49:16;18.10;99.90
4727;DHT22;2377;51.734;8.950;2022-10-16T15:51:44;18.00;99.90
4727;DHT22;2377;51.734;8.950;2022-10-16T15:54:12;17.90;99.90
4727;DHT22;2377;51.734;8.950;2022-10-16T15:56:39;17.80;99.90
4727;DHT22;2377;51.734;8.950;2022-10-16T15:59:06;17.80;99.90
4727;DHT22;2377;51.734;8.950;2022-10-16T16:01:33;17.70;99.90
4727;DHT22;2377;51.734;8.950;2022-10-16T16:04:01;17.60;99.90
4727;DHT22;2377;51.734;8.950;2022-10-16T16:06:31;17.60;99.90
4727;DHT22;2377;51.734;8.950;2022-10-16T16:08:58;17.50;99.90
4727;DHT22;2377;51.734;8.950;2022-10-16T16:11:25;17.30;99.90
4727;DHT22;2377;51.734;8.950;2022-10-16T16:13:53;17.10;99.90
4727;DHT22;2377;51.734;8.950;2022-10-16T16:16:21;17.10;99.90
4727;DHT22;2377;51.734;8.950;2022-10-16T16:18:48;17.00;99.90
4727;DHT22;2377;51.734;8.950;2022-10-16T16:21:19;17.00;99.90
4727;DHT22;2377;51.734;8.950;2022-10-16T16:23:48;16.90;99.90
4727;DHT22;2377;51.734;8.950;2022-10-16T16:26:22;16.80;99.90
4727;DHT22;2377;51.734;8.950;2022-10-16T16:28:52;16.70;99.90
4727;DHT22;2377;51.734;8.950;2022-10-16T16:31:24;16.60;99.90
4727;DHT22;2377;51.734;8.950;2022-10-16T16:33:52;16.50;99.90
4727;DHT22;2377;51.734;8.950;2022-10-16T16:36:19;16.40;99.90